Time;durP1;ratioP1;P1;durP2;ratioP2;P2;SDS_P1;SDS_P2;PMS_P1;PMS_P2;Temp;Humidity;BMP_temperature;BMP_pressure;BME280_temperature;BME280_humidity;BME280_pressure;Samples;Min_cycle;Max_cycle;Signal;HPM_P1;HPM_P2
2022/12/11 00:00:29;;;;;;;48.88;20.77;;;;;;;-1.77;100.00;101203.81;5034761;28;20431;-78
2022/12/11 00:02:56;;;;;;;61.78;21.35;;;;;;;-1.77;100.00;101203.81;5005806;28;20061;-78
2022/12/11 00:05:24;;;;;;;65.53;21.40;;;;;;;-1.77;100.00;101198.66;5021407;28;20048;-78
2022/12/11 00:07:52;;;;;;;66.40;21.00;;;;;;;-1.77;100.00;101196.06;5038963;28;20336;-79
2022/12/11 00:10:20;;;;;;;74.18;22.02;;;;;;;-1.77;100.00;101185.72;5033826;28;20055;-78
2022/12/11 00:12:47;;;;;;;62.50;20.50;;;;;;;-1.77;100.00;101183.16;5063335;28;20156;-78
2022/12/11 00:15:15;;;;;;;75.68;22.55;;;;;;;-1.78;100.00;101183.94;5022526;28;20045;-78
2022/12/11 00:17:42;;;;;;;69.25;21.13;;;;;;;-1.80;100.00;101185.53;5039945;28;20057;-78
2022/12/11 00:20:13;;;;;;;66.25;21.30;;;;;;;-1.81;100.00;101188.94;5015722;28;21006;-78
2022/12/11 00:22:41;;;;;;;78.20;23.02;;;;;;;-1.78;100.00;101191.69;5019794;28;20059;-78
2022/12/11 00:25:08;;;;;;;81.72;22.88;;;;;;;-1.78;100.00;101189.09;5056619;28;20028;-78
2022/12/11 00:27:36;;;;;;;70.55;19.90;;;;;;;-1.80;100.00;101188.13;5053422;28;20053;-78
2022/12/11 00:30:05;;;;;;;56.72;20.42;;;;;;;-1.82;100.00;101181.97;5032437;28;20048;-78
2022/12/11 00:32:33;;;;;;;72.97;21.17;;;;;;;-1.83;100.00;101183.69;5018056;28;20053;-78
2022/12/11 00:35:04;;;;;;;78.35;20.95;;;;;;;-1.83;100.00;101190.53;5026278;28;20044;-78
2022/12/11 00:37:31;;;;;;;63.25;19.00;;;;;;;-1.89;100.00;101190.16;5024008;28;20064;-78
2022/12/11 00:39:59;;;;;;;66.53;21.48;;;;;;;-1.96;100.00;101197.56;5021090;28;20060;-78
2022/12/11 00:42:26;;;;;;;57.58;20.17;;;;;;;-1.97;100.00;101197.47;5049560;28;20037;-78
2022/12/11 00:44:55;;;;;;;68.57;21.08;;;;;;;-1.98;100.00;101193.13;5043639;28;20041;-78
2022/12/11 00:47:22;;;;;;;57.08;20.73;;;;;;;-1.97;100.00;101188.03;5044129;28;20053;-78
2022/12/11 00:49:51;;;;;;;66.32;20.80;;;;;;;-1.96;100.00;101191.50;5028709;28;20049;-79
2022/12/11 00:52:18;;;;;;;66.68;20.58;;;;;;;-1.94;100.00;101199.34;5031073;28;20443;-77
2022/12/11 00:54:46;;;;;;;66.82;21.20;;;;;;;-1.92;100.00;101197.75;5026556;28;20045;-77
2022/12/11 00:57:13;;;;;;;68.32;20.20;;;;;;;-1.92;100.00;101202.91;5006605;28;20080;-77
2022/12/11 00:59:41;;;;;;;111.57;24.02;;;;;;;-1.93;100.00;101198.53;5025545;28;20061;-77
2022/12/11 01:02:09;;;;;;;60.55;20.42;;;;;;;-1.97;100.00;101202.63;5009863;28;20060;-77
2022/12/11 01:04:36;;;;;;;59.38;20.52;;;;;;;-2.02;100.00;101204.94;4997783;28;20061;-77
2022/12/11 01:07:04;;;;;;;73.30;22.95;;;;;;;-1.99;100.00;101209.41;5026970;28;20048;-77
2022/12/11 01:12:17;;;;;;;70.18;22.90;;;;;;;-1.96;100.00;101205.31;5007303;28;20060;-77
2022/12/11 01:14:44;;;;;;;57.25;20.40;;;;;;;-1.97;100.00;101212.97;5029075;28;20044;-77
2022/12/11 01:17:11;;;;;;;58.53;20.67;;;;;;;-2.00;100.00;101205.94;5004324;28;20099;-77
2022/12/11 01:19:39;;;;;;;68.35;20.67;;;;;;;-2.00;100.00;101215.38;5000456;28;20493;-77
2022/12/11 01:22:06;;;;;;;53.25;19.98;;;;;;;-2.01;100.00;101211.88;5005080;28;20049;-77
2022/12/11 01:24:33;;;;;;;58.30;21.80;;;;;;;-1.97;100.00;101211.28;5020817;28;20049;-77
2022/12/11 01:27:01;;;;;;;61.72;20.75;;;;;;;-1.96;100.00;101210.47;5023151;28;20045;-77
2022/12/11 01:29:28;;;;;;;61.75;22.48;;;;;;;-1.94;100.00;101217.44;5011443;28;20049;-77
2022/12/11 01:31:56;;;;;;;64.82;20.95;;;;;;;-1.89;100.00;101221.16;5019327;28;20045;-77
2022/12/11 01:34:23;;;;;;;74.15;24.33;;;;;;;-1.86;100.00;101216.19;4996037;28;20144;-77
2022/12/11 01:36:51;;;;;;;74.88;22.48;;;;;;;-1.83;100.00;101221.56;5049493;28;20044;-77
2022/12/11 01:39:21;;;;;;;64.78;22.45;;;;;;;-1.82;100.00;101213.88;5012379;28;20045;-77
2022/12/11 01:41:48;;;;;;;69.05;22.38;;;;;;;-1.79;100.00;101208.00;5012191;28;20053;-78
2022/12/11 01:44:15;;;;;;;73.72;22.95;;;;;;;-1.76;100.00;101213.31;5024420;28;20060;-77
2022/12/11 01:46:42;;;;;;;67.13;23.15;;;;;;;-1.74;100.00;101211.72;5027228;28;20052;-77
2022/12/11 01:49:12;;;;;;;71.22;23.20;;;;;;;-1.72;100.00;101214.41;4988528;28;20053;-77
2022/12/11 01:51:50;;;;;;;62.30;21.63;;;;;;;-1.71;100.00;101216.19;5035106;28;20060;-79
2022/12/11 01:54:22;;;;;;;47.22;19.88;;;;;;;-1.70;100.00;101213.72;5048495;28;20048;-77
2022/12/11 01:56:52;;;;;;;52.65;20.35;;;;;;;-1.68;100.00;101209.53;5076365;28;20032;-78
2022/12/11 01:59:25;;;;;;;52.47;19.85;;;;;;;-1.65;100.00;101201.94;5047443;28;20059;-78
2022/12/11 02:02:03;;;;;;;57.42;19.02;;;;;;;-1.63;100.00;101209.78;5054488;28;20056;-77
2022/12/11 02:04:31;;;;;;;50.60;18.20;;;;;;;-1.60;100.00;101204.81;5059376;28;20052;-77
2022/12/11 02:06:59;;;;;;;46.60;17.45;;;;;;;-1.58;100.00;101190.28;5015254;28;20413;-77
2022/12/11 02:09:32;;;;;;;54.72;20.60;;;;;;;-1.55;100.00;101198.22;5045488;28;20049;-77
2022/12/11 02:12:31;;;;;;;44.67;18.40;;;;;;;-1.53;100.00;101200.84;5025077;28;20056;-77
2022/12/11 02:15:26;;;;;;;57.78;18.88;;;;;;;-1.52;100.00;101205.25;5040068;28;20055;-77
2022/12/11 02:18:04;;;;;;;58.70;18.65;;;;;;;-1.54;100.00;101204.25;5040599;28;20055;-77
2022/12/11 02:20:56;;;;;;;68.85;19.58;;;;;;;-1.53;100.00;101203.44;5027230;28;20057;-77
2022/12/11 02:23:42;;;;;;;47.72;18.70;;;;;;;-1.51;100.00;101202.75;5063498;28;20045;-77
2022/12/11 02:26:37;;;;;;;45.95;19.20;;;;;;;-1.48;100.00;101199.44;5057053;28;20043;-77
2022/12/11 02:29:12;;;;;;;56.63;20.23;;;;;;;-1.46;100.00;101192.66;5042038;28;20052;-77
2022/12/11 02:31:53;;;;;;;49.30;18.50;;;;;;;-1.45;100.00;101186.69;5033767;28;20441;-77
2022/12/11 02:34:36;;;;;;;50.55;18.58;;;;;;;-1.41;100.00;101191.22;5048214;28;20037;-77
2022/12/11 02:37:08;;;;;;;51.90;18.02;;;;;;;-1.39;100.00;101187.91;5027402;28;20048;-77
2022/12/11 02:39:40;;;;;;;47.97;18.35;;;;;;;-1.37;100.00;101175.09;5048474;28;20052;-77
2022/12/11 02:42:10;;;;;;;46.17;17.52;;;;;;;-1.35;100.00;101180.34;5053278;28;20529;-77
2022/12/11 02:44:39;;;;;;;31.80;13.07;;;;;;;-1.34;100.00;101172.69;5056778;28;20078;-78
2022/12/11 02:47:13;;;;;;;49.25;17.77;;;;;;;-1.32;100.00;101170.16;5063719;28;20043;-79
2022/12/11 02:49:46;;;;;;;52.00;18.20;;;;;;;-1.30;100.00;101164.28;5073376;28;20048;-79
2022/12/11 02:52:17;;;;;;;56.75;17.83;;;;;;;-1.29;100.00;101176.41;5017842;28;20489;-77
2022/12/11 02:54:46;;;;;;;43.92;18.42;;;;;;;-1.28;100.00;101162.69;5046083;28;20060;-77
2022/12/11 02:57:30;;;;;;;42.60;17.20;;;;;;;-1.26;100.00;101162.78;5036405;28;20086;-77
2022/12/11 02:59:59;;;;;;;47.92;17.90;;;;;;;-1.25;100.00;101159.38;5048379;28;20409;-79
2022/12/11 03:02:27;;;;;;;50.45;18.02;;;;;;;-1.23;100.00;101157.75;4992854;28;20053;-77
2022/12/11 03:04:56;;;;;;;38.08;15.75;;;;;;;-1.24;100.00;101162.03;5045577;28;20053;-79
2022/12/11 03:07:32;;;;;;;53.10;17.08;;;;;;;-1.21;100.00;101164.81;4993195;28;20524;-78
2022/12/11 03:10:00;;;;;;;41.55;15.15;;;;;;;-1.20;100.00;101164.00;5030823;28;20052;-79
2022/12/11 03:12:36;;;;;;;42.40;16.15;;;;;;;-1.19;100.00;101167.50;5043785;28;20047;-78
2022/12/11 03:15:09;;;;;;;46.97;16.30;;;;;;;-1.18;100.00;101158.91;5048389;28;20029;-78
2022/12/11 03:18:02;;;;;;;44.63;16.13;;;;;;;-1.16;100.00;101159.00;5042368;28;20045;-78
2022/12/11 03:20:37;;;;;;;40.28;15.73;;;;;;;-1.16;100.00;101159.88;5039012;28;20056;-78
2022/12/11 03:23:21;;;;;;;42.28;14.93;;;;;;;-1.15;100.00;101160.75;5018083;28;20053;-79
2022/12/11 03:26:12;;;;;;;36.88;15.25;;;;;;;-1.12;100.00;101153.19;5046374;28;20044;-78
2022/12/11 03:29:01;;;;;;;50.30;16.35;;;;;;;-1.11;100.00;101155.84;5055923;28;20063;-78
2022/12/11 03:31:36;;;;;;;41.00;15.50;;;;;;;-1.10;100.00;101151.56;5068272;28;20043;-78
2022/12/11 03:34:15;;;;;;;47.83;16.70;;;;;;;-1.10;100.00;101151.56;5022439;28;20044;-79
2022/12/11 03:36:46;;;;;;;49.97;17.10;;;;;;;-1.10;100.00;101155.03;5047461;28;20033;-80
2022/12/11 03:39:43;;;;;;;43.17;16.73;;;;;;;-1.11;100.00;101155.84;5025210;28;20048;-79
2022/12/11 03:42:14;;;;;;;49.22;17.38;;;;;;;-1.09;100.00;101153.38;5046322;28;20057;-78
2022/12/11 03:44:48;;;;;;;48.22;16.98;;;;;;;-1.09;100.00;101153.38;5047309;28;20048;-79
2022/12/11 03:47:22;;;;;;;45.63;16.52;;;;;;;-1.08;100.00;101161.19;5035374;28;20051;-78
2022/12/11 03:49:52;;;;;;;41.88;16.80;;;;;;;-1.07;100.00;101152.63;5027020;28;20071;-78
2022/12/11 03:52:25;;;;;;;48.67;18.45;;;;;;;-1.05;100.00;101144.97;5031180;28;20053;-79
2022/12/11 03:54:56;;;;;;;52.47;18.50;;;;;;;-1.04;100.00;101146.72;5025509;28;20045;-78
2022/12/11 03:57:30;;;;;;;51.38;18.27;;;;;;;-1.05;100.00;101132.91;5058706;28;20389;-79
2022/12/11 03:59:57;;;;;;;55.53;17.08;;;;;;;-1.02;100.00;101142.53;5047324;28;20040;-79
2022/12/11 04:02:25;;;;;;;49.05;17.00;;;;;;;-1.01;100.00;101139.16;5046631;28;20740;-78
2022/12/11 04:04:52;;;;;;;51.03;17.15;;;;;;;-1.01;100.00;101139.16;5045228;28;20055;-79
2022/12/11 04:07:20;;;;;;;42.53;16.17;;;;;;;-1.00;100.00;101138.34;5044359;28;20041;-79
2022/12/11 04:09:49;;;;;;;46.53;15.88;;;;;;;-0.99;100.00;101134.94;5027531;28;20047;-78
2022/12/11 04:12:16;;;;;;;49.20;16.08;;;;;;;-1.00;100.00;101136.66;4987320;28;20057;-79
2022/12/11 04:15:02;;;;;;;48.33;16.63;;;;;;;-0.99;100.00;101150.47;5062265;28;20568;-79
2022/12/11 04:26:08;;;;;;;45.92;15.98;;;;;;;-0.99;100.00;101140.13;5058753;28;20426;-79
2022/12/11 04:28:36;;;;;;;40.08;15.35;;;;;;;-0.98;100.00;101141.91;5023840;28;20056;-79
2022/12/11 04:31:05;;;;;;;46.97;16.35;;;;;;;-0.96;100.00;101136.78;5019436;28;20061;-79
2022/12/11 04:33:33;;;;;;;47.75;17.48;;;;;;;-0.96;100.00;101135.13;5039868;28;20625;-78
2022/12/11 04:36:01;;;;;;;50.97;16.42;;;;;;;-0.95;100.00;101131.72;5028869;28;20049;-79
2022/12/11 04:38:28;;;;;;;46.15;16.25;;;;;;;-0.95;100.00;101139.47;5061569;28;20049;-78
2022/12/11 04:41:07;;;;;;;43.38;16.65;;;;;;;-0.94;100.00;101136.09;5026926;28;20048;-79
2022/12/11 04:43:35;;;;;;;44.50;16.38;;;;;;;-0.93;100.00;101134.38;5012393;28;20048;-78
2022/12/11 04:46:04;;;;;;;51.15;16.27;;;;;;;-0.92;100.00;101131.88;5043611;28;20071;-78
2022/12/11 04:48:32;;;;;;;51.65;18.42;;;;;;;-0.91;100.00;101131.06;5030673;28;20037;-78
2022/12/11 04:50:59;;;;;;;54.00;18.25;;;;;;;-0.89;100.00;101128.56;5039890;28;20075;-79
2022/12/11 04:53:28;;;;;;;56.17;17.92;;;;;;;-0.88;100.00;101127.78;5046709;28;20567;-78
2022/12/11 04:55:56;;;;;;;51.53;17.17;;;;;;;-0.87;100.00;101120.09;5052289;28;20049;-78
2022/12/11 04:58:25;;;;;;;54.05;16.80;;;;;;;-0.85;100.00;101117.56;5018885;28;20036;-78
2022/12/11 05:00:54;;;;;;;54.38;18.92;;;;;;;-0.83;100.00;101118.56;5072094;28;20417;-78
2022/12/11 05:03:21;;;;;;;51.25;18.00;;;;;;;-0.81;100.00;101119.53;5039461;28;20049;-78
2022/12/11 05:05:51;;;;;;;51.38;17.98;;;;;;;-0.82;100.00;101118.63;5053428;28;20060;-78
2022/12/11 05:08:28;;;;;;;54.28;18.73;;;;;;;-0.81;100.00;101122.13;5046584;28;20235;-78
2022/12/11 05:10:59;;;;;;;53.42;18.48;;;;;;;-0.81;100.00;101120.41;5059046;28;20052;-78
2022/12/11 05:13:27;;;;;;;53.67;18.67;;;;;;;-0.79;100.00;101126.56;5008689;28;20057;-78
2022/12/11 05:15:56;;;;;;;50.00;17.50;;;;;;;-0.77;100.00;101130.94;5038215;28;20048;-77
2022/12/11 05:18:23;;;;;;;59.35;19.38;;;;;;;-0.76;100.00;101125.81;5054648;28;20033;-78
2022/12/11 05:21:04;;;;;;;50.75;18.63;;;;;;;-0.75;100.00;101127.63;5054058;28;20053;-78
2022/12/11 05:23:32;;;;;;;51.65;17.38;;;;;;;-0.76;100.00;101125.81;5061400;28;20048;-78
2022/12/11 05:26:03;;;;;;;51.60;18.35;;;;;;;-0.76;100.00;101119.75;5052956;28;20045;-78
2022/12/11 05:28:33;;;;;;;42.80;14.15;;;;;;;-0.76;100.00;101123.22;5043412;28;20057;-78
2022/12/11 05:31:03;;;;;;;;;;;;;;;-0.77;100.00;101112.81;5040300;28;20049;-78
2022/12/11 05:33:31;;;;;;;46.70;16.30;;;;;;;-0.80;100.00;101126.47;5058059;28;19920;-78
2022/12/11 05:35:59;;;;;;;53.90;18.90;;;;;;;-0.80;100.00;101124.75;5055853;28;20065;-78
2022/12/11 05:38:26;;;;;;;47.35;17.50;;;;;;;-0.80;100.00;101126.47;5020420;28;20053;-78
2022/12/11 05:40:58;;;;;;;54.30;17.65;;;;;;;-0.79;100.00;101128.25;5055749;28;20061;-77
2022/12/11 05:43:29;;;;;;;43.60;17.45;;;;;;;-0.82;100.00;101123.78;5042937;28;20122;-78
2022/12/11 05:46:07;;;;;;;48.70;17.98;;;;;;;-0.85;100.00;101118.47;5050799;28;20061;-77
2022/12/11 05:48:36;;;;;;;45.72;17.38;;;;;;;-0.84;100.00;101124.53;5063397;28;20053;-78
2022/12/11 05:51:07;;;;;;;55.05;18.73;;;;;;;-0.84;100.00;101125.41;5049918;28;20059;-78
2022/12/11 05:53:37;;;;;;;47.33;17.75;;;;;;;-0.83;100.00;101123.75;5050269;28;20057;-78
2022/12/11 05:56:07;;;;;;;58.83;19.83;;;;;;;-0.82;100.00;101123.78;5040983;28;20045;-78
2022/12/11 05:58:35;;;;;;;49.63;18.90;;;;;;;-0.80;100.00;101118.72;5040914;28;20056;-78
2022/12/11 06:01:06;;;;;;;49.47;16.58;;;;;;;-0.77;100.00;101118.88;5031250;28;20052;-78
2022/12/11 06:03:35;;;;;;;46.90;18.30;;;;;;;-0.74;100.00;101123.31;5025911;28;20513;-78
2022/12/11 06:06:04;;;;;;;63.05;25.05;;;;;;;-0.72;100.00;101124.28;5028631;28;20060;-77
2022/12/11 06:08:32;;;;;;;56.55;19.38;;;;;;;-0.70;100.00;101125.25;5052382;28;20060;-78
2022/12/11 06:11:00;;;;;;;51.38;20.08;;;;;;;-0.70;100.00;101121.00;5023305;28;20053;-77
2022/12/11 06:13:28;;;;;;;46.67;19.27;;;;;;;-0.68;100.00;101110.69;5020789;28;20049;-78
2022/12/11 06:16:05;;;;;;;54.53;18.27;;;;;;;-0.68;100.00;101108.09;4995043;28;20518;-77
2022/12/11 06:18:38;;;;;;;48.38;19.05;;;;;;;-0.66;100.00;101115.16;5039773;28;20037;-78
2022/12/11 06:21:13;;;;;;;43.85;18.10;;;;;;;-0.64;100.00;101120.44;5047342;28;20052;-77
2022/12/11 06:23:42;;;;;;;49.15;18.88;;;;;;;-0.63;100.00;101111.84;5021221;28;20045;-78
2022/12/11 06:26:10;;;;;;;52.40;18.35;;;;;;;-0.62;100.00;101111.94;5038320;28;20059;-77
2022/12/11 06:28:38;;;;;;;50.53;18.45;;;;;;;-0.63;100.00;101119.59;5051199;28;20055;-78
2022/12/11 06:31:06;;;;;;;46.47;18.92;;;;;;;-0.62;100.00;101109.34;5028793;28;20436;-78
2022/12/11 06:33:34;;;;;;;45.90;20.13;;;;;;;-0.63;100.00;101114.44;5061556;28;20052;-79
2022/12/11 06:36:04;;;;;;;54.80;19.92;;;;;;;-0.62;100.00;101109.34;5027822;28;20045;-78
2022/12/11 06:38:31;;;;;;;46.10;19.02;;;;;;;-0.61;100.00;101113.69;5045475;28;20056;-77
2022/12/11 06:41:03;;;;;;;39.58;18.33;;;;;;;-0.61;100.00;101108.50;5020315;28;20056;-78
2022/12/11 06:43:32;;;;;;;51.80;18.80;;;;;;;-0.61;100.00;101115.41;5047180;28;20063;-78
2022/12/11 06:46:06;;;;;;;45.90;19.00;;;;;;;-0.62;100.00;101114.50;5033651;28;20097;-77
2022/12/11 06:48:34;;;;;;;54.25;19.38;;;;;;;-0.64;100.00;101113.53;5042511;28;20052;-78
2022/12/11 06:51:07;;;;;;;50.00;18.95;;;;;;;-0.62;100.00;101108.47;5038108;28;20045;-78
2022/12/11 06:53:35;;;;;;;43.72;18.40;;;;;;;-0.60;100.00;101109.41;5044828;28;20067;-78
2022/12/11 06:56:12;;;;;;;49.10;18.73;;;;;;;-0.60;100.00;101115.47;5057114;28;20049;-77
2022/12/11 06:58:41;;;;;;;51.95;19.23;;;;;;;-0.60;100.00;101118.06;5042963;28;20052;-78
2022/12/11 07:01:18;;;;;;;47.80;18.58;;;;;;;-0.59;100.00;101121.53;5036978;28;20701;-77
2022/12/11 07:03:47;;;;;;;55.05;19.92;;;;;;;-0.58;100.00;101122.44;5028050;28;20057;-77
2022/12/11 07:06:16;;;;;;;56.17;19.23;;;;;;;-0.58;100.00;101114.69;5043420;28;20063;-77
2022/12/11 07:08:45;;;;;;;56.20;18.92;;;;;;;-0.61;100.00;101116.28;5053187;28;20045;-79
2022/12/11 07:11:15;;;;;;;51.30;19.75;;;;;;;-0.61;100.00;101121.44;5043662;28;20037;-77
2022/12/11 07:13:43;;;;;;;37.67;13.70;;;;;;;-0.61;100.00;101123.16;5016564;28;20052;-78
2022/12/11 07:16:12;;;;;;;53.10;19.50;;;;;;;-0.60;100.00;101130.13;5061415;28;20041;-77
2022/12/11 07:18:42;;;;;;;42.95;17.63;;;;;;;-0.61;100.00;101125.75;5006222;28;20049;-78
2022/12/11 07:21:12;;;;;;;51.03;19.05;;;;;;;-0.61;100.00;101131.81;5056439;28;20056;-77
2022/12/11 07:23:39;;;;;;;51.97;18.73;;;;;;;-0.59;100.00;101137.06;5035900;28;20498;-77
2022/12/11 07:26:12;;;;;;;53.42;18.90;;;;;;;-0.61;100.00;101126.63;5027935;28;20413;-78
2022/12/11 07:28:41;;;;;;;54.10;18.85;;;;;;;-0.60;100.00;101135.31;5025232;28;20037;-78
2022/12/11 07:31:17;;;;;;;52.35;18.40;;;;;;;-0.62;100.00;101126.56;5018939;28;20048;-78
2022/12/11 07:33:57;;;;;;;52.80;18.10;;;;;;;-0.63;100.00;101136.00;5038279;28;20067;-79
2022/12/11 07:36:26;;;;;;;50.40;18.40;;;;;;;-0.64;100.00;101128.19;5011504;28;20056;-78
2022/12/11 07:38:57;;;;;;;48.88;19.27;;;;;;;-0.63;100.00;101125.66;5053803;28;20410;-79
2022/12/11 07:41:26;;;;;;;51.83;19.83;;;;;;;-0.63;100.00;101124.78;5063756;28;20550;-78
2022/12/11 07:43:55;;;;;;;59.78;18.73;;;;;;;-0.62;100.00;101124.00;5053402;28;20052;-77
2022/12/11 07:46:25;;;;;;;54.03;18.63;;;;;;;-0.64;100.00;101126.50;5043292;28;20049;-78
2022/12/11 07:48:54;;;;;;;48.42;18.35;;;;;;;-0.62;100.00;101124.00;5041937;28;20045;-78
2022/12/11 07:51:27;;;;;;;52.13;19.55;;;;;;;-0.64;100.00;101118.72;5007087;28;20045;-78
2022/12/11 07:53:59;;;;;;;48.78;18.80;;;;;;;-0.65;100.00;101121.22;5047470;28;20049;-77
2022/12/11 07:56:28;;;;;;;50.85;17.75;;;;;;;-0.65;100.00;101132.47;5053174;28;20607;-78
2022/12/11 07:59:04;;;;;;;;;;;;;;;-0.64;100.00;101131.66;5037536;28;20049;-78
2022/12/11 08:01:35;;;;;;;53.90;18.13;;;;;;;-0.63;100.00;101141.19;5054850;28;19931;-77
2022/12/11 08:04:04;;;;;;;58.83;19.70;;;;;;;-0.61;100.00;101130.94;5029752;28;20079;-77
2022/12/11 08:06:37;;;;;;;53.38;19.35;;;;;;;-0.59;100.00;101142.25;5015783;28;20490;-78
2022/12/11 08:09:08;;;;;;;50.22;19.15;;;;;;;-0.60;100.00;101140.47;5022082;28;20049;-77
2022/12/11 08:11:37;;;;;;;49.20;18.08;;;;;;;-0.60;100.00;101145.66;5042401;28;20045;-77
2022/12/11 08:14:05;;;;;;;42.80;18.30;;;;;;;-0.60;100.00;101135.31;5036834;28;20418;-78
2022/12/11 08:16:32;;;;;;;47.72;18.33;;;;;;;-0.61;100.00;101142.16;5014683;28;20849;-77
2022/12/11 08:19:00;;;;;;;47.78;18.23;;;;;;;-0.59;100.00;101137.06;5053087;28;20037;-77
2022/12/11 08:21:28;;;;;;;50.33;17.85;;;;;;;-0.58;100.00;101135.41;5022930;28;20056;-77
2022/12/11 08:23:55;;;;;;;39.63;17.58;;;;;;;-0.60;100.00;101140.47;5053333;28;20112;-77
2022/12/11 08:26:28;;;;;;;45.90;18.02;;;;;;;-0.61;100.00;101139.56;5053420;28;20052;-77
2022/12/11 08:28:56;;;;;;;47.65;19.08;;;;;;;-0.60;100.00;101143.06;5043727;28;20457;-77
2022/12/11 08:31:24;;;;;;;42.25;18.27;;;;;;;-0.58;100.00;101137.97;5040107;28;20101;-77
2022/12/11 08:33:51;;;;;;;42.78;16.83;;;;;;;-0.56;100.00;101141.53;5069382;28;20058;-77
2022/12/11 08:36:21;;;;;;;40.70;16.02;;;;;;;-0.56;100.00;101139.84;5027220;28;20049;-77
2022/12/11 08:38:50;;;;;;;44.92;17.98;;;;;;;-0.54;100.00;101145.97;5072232;28;20045;-78
2022/12/11 08:41:28;;;;;;;46.05;17.70;;;;;;;-0.53;100.00;101139.09;5043339;28;20056;-78
2022/12/11 08:43:59;;;;;;;40.85;16.45;;;;;;;-0.52;100.00;101136.59;5042689;28;20059;-77
2022/12/11 08:46:29;;;;;;;49.00;18.17;;;;;;;-0.50;100.00;101141.84;5054312;28;20502;-77
2022/12/11 08:48:57;;;;;;;30.25;12.25;;;;;;;-0.50;100.00;101142.72;5059820;28;20041;-78
2022/12/11 08:51:26;;;;;;;45.38;17.13;;;;;;;-0.46;100.00;101144.66;5021349;28;20056;-78
2022/12/11 08:53:59;;;;;;;37.85;15.65;;;;;;;-0.43;100.00;101149.13;5066742;28;20037;-78
2022/12/11 08:56:27;;;;;;;41.38;16.55;;;;;;;-0.42;100.00;101145.72;5059808;28;20068;-77
2022/12/11 08:58:54;;;;;;;39.05;15.70;;;;;;;-0.41;100.00;101144.94;5044221;28;20044;-78
2022/12/11 09:01:24;;;;;;;39.78;15.32;;;;;;;-0.41;100.00;101144.94;5035590;28;20048;-77
2022/12/11 09:03:53;;;;;;;35.38;15.55;;;;;;;-0.41;100.00;101143.22;5066353;28;20041;-77
2022/12/11 09:06:23;;;;;;;40.00;16.30;;;;;;;-0.40;100.00;101137.25;5026980;28;20052;-77
2022/12/11 09:08:52;;;;;;;39.67;15.18;;;;;;;-0.37;100.00;101145.97;5041756;28;20048;-77
2022/12/11 09:11:25;;;;;;;35.60;16.73;;;;;;;-0.37;100.00;101148.56;5047383;28;20044;-77
2022/12/11 09:13:55;;;;;;;40.92;15.57;;;;;;;-0.36;100.00;101145.16;5058939;28;20048;-77
2022/12/11 09:16:24;;;;;;;43.55;16.10;;;;;;;-0.34;100.00;101140.94;5061744;28;20059;-79
2022/12/11 09:18:54;;;;;;;37.05;15.98;;;;;;;-0.33;100.00;101143.63;5060521;28;20389;-78
2022/12/11 09:21:25;;;;;;;41.60;16.40;;;;;;;-0.31;100.00;101142.00;5037378;28;20055;-78
2022/12/11 09:23:59;;;;;;;38.28;15.88;;;;;;;-0.30;100.00;101146.38;5060443;28;20067;-77
2022/12/11 09:26:27;;;;;;;34.65;15.57;;;;;;;-0.30;100.00;101140.28;5049453;28;20044;-79
2022/12/11 09:28:55;;;;;;;38.70;15.07;;;;;;;-0.31;100.00;101142.00;5038883;28;20055;-79
2022/12/11 09:31:28;;;;;;;39.08;15.73;;;;;;;-0.31;100.00;101138.53;5027089;28;20060;-79
2022/12/11 09:33:58;;;;;;;38.55;15.57;;;;;;;-0.30;100.00;101137.69;5056200;28;20044;-79
2022/12/11 09:36:27;;;;;;;30.05;14.20;;;;;;;-0.28;100.00;101138.69;5075115;28;20055;-79
2022/12/11 09:38:58;;;;;;;43.90;16.77;;;;;;;-0.28;100.00;101139.56;5034909;28;20040;-78
2022/12/11 09:41:31;;;;;;;;;;;;;;;-0.29;100.00;101130.00;5054572;28;20052;-76
2022/12/11 09:44:10;;;;;;;37.13;14.75;;;;;;;-0.25;100.00;101131.94;5074501;28;19931;-79
2022/12/11 09:46:39;;;;;;;42.53;15.30;;;;;;;-0.23;100.00;101132.03;5055104;28;20053;-78
2022/12/11 09:49:31;;;;;;;33.70;14.20;;;;;;;-0.21;100.00;101130.41;5076272;28;20036;-78
2022/12/11 09:52:03;;;;;;;35.88;15.63;;;;;;;-0.21;100.00;101122.63;5058594;28;20050;-78
2022/12/11 09:54:31;;;;;;;33.08;13.50;;;;;;;-0.21;100.00;101115.78;5030805;28;20067;-78
2022/12/11 09:57:19;;;;;;;32.70;14.35;;;;;;;-0.20;100.00;101112.34;5048025;28;20070;-78
2022/12/11 10:00:14;;;;;;;37.85;15.55;;;;;;;-0.17;100.00;101105.53;5029033;28;20053;-78
2022/12/11 10:03:08;;;;;;;39.78;15.98;;;;;;;-0.16;100.00;101108.22;5042842;28;20041;-78
2022/12/11 10:05:47;;;;;;;42.47;14.88;;;;;;;-0.15;100.00;101104.84;5058936;28;20040;-79
2022/12/11 10:08:26;;;;;;;35.67;14.68;;;;;;;-0.15;100.00;101104.84;5035425;28;20052;-79
2022/12/11 10:11:20;;;;;;;37.58;15.32;;;;;;;-0.15;100.00;101115.19;5045843;28;20044;-78
2022/12/11 10:13:57;;;;;;;43.45;15.15;;;;;;;-0.14;100.00;101109.19;5015375;28;20045;-78
2022/12/11 10:17:07;;;;;;;35.35;15.35;;;;;;;-0.12;100.00;101120.50;5038426;28;20053;-79
2022/12/11 10:19:35;;;;;;;36.80;14.77;;;;;;;-0.12;100.00;101107.56;5046334;28;20045;-79
2022/12/11 10:22:03;;;;;;;38.63;16.00;;;;;;;-0.12;100.00;101107.56;5055962;28;20037;-78
2022/12/11 10:24:39;;;;;;;39.10;15.98;;;;;;;-0.12;100.00;101104.97;5017954;28;20045;-78
2022/12/11 10:27:32;;;;;;;41.00;16.10;;;;;;;-0.10;100.00;101110.22;5038389;28;20060;-78
2022/12/11 10:30:13;;;;;;;44.17;16.80;;;;;;;-0.10;100.00;101107.66;5046694;28;20048;-78
2022/12/11 10:32:43;;;;;;;;;;;;;;;-0.10;100.00;101115.41;5050365;28;20064;-77
2022/12/11 10:35:18;;;;;;;42.03;15.73;;;;;;;-0.09;100.00;101104.25;5018643;28;20395;-78
2022/12/11 10:37:46;;;;;;;35.72;15.35;;;;;;;-0.07;100.00;101098.31;5053136;28;20048;-79
2022/12/11 10:40:13;;;;;;;41.90;17.33;;;;;;;-0.05;100.00;101098.41;5008553;28;20040;-79
2022/12/11 10:42:52;;;;;;;40.17;15.95;;;;;;;-0.04;100.00;101089.81;5023576;28;20044;-78
2022/12/11 10:45:22;;;;;;;42.72;18.13;;;;;;;-0.02;100.00;101080.41;5045405;28;20091;-79
2022/12/11 10:47:49;;;;;;;42.38;17.40;;;;;;;-0.01;100.00;101090.84;5045613;28;20036;-79
2022/12/11 10:50:24;;;;;;;43.95;16.33;;;;;;;0.02;100.00;101082.38;5045030;28;20059;-79
2022/12/11 10:52:52;;;;;;;44.75;18.05;;;;;;;0.03;100.00;101078.06;5039377;28;20505;-78
2022/12/11 10:55:23;;;;;;;42.75;16.40;;;;;;;0.02;100.00;101082.38;5020572;28;20056;-77
2022/12/11 10:58:02;;;;;;;45.53;16.35;;;;;;;0.03;100.00;101078.94;5002993;28;20044;-79
2022/12/11 11:00:40;;;;;;;42.78;17.00;;;;;;;0.05;100.00;101081.63;5046957;28;20414;-79
2022/12/11 11:03:26;;;;;;;41.25;17.10;;;;;;;0.06;100.00;101083.38;5046380;28;20049;-79
2022/12/11 11:06:21;;;;;;;46.97;16.88;;;;;;;0.09;100.00;101078.34;5006215;28;20048;-79
2022/12/11 11:08:52;;;;;;;39.95;16.50;;;;;;;0.08;100.00;101076.59;5022697;28;20041;-79
2022/12/11 11:11:35;;;;;;;47.55;17.23;;;;;;;0.09;100.00;101079.22;5001271;28;20056;-80
2022/12/11 11:14:15;;;;;;;37.55;16.48;;;;;;;0.10;100.00;101080.16;5042428;28;20052;-77
2022/12/11 11:16:49;;;;;;;43.42;17.48;;;;;;;0.14;100.00;101082.06;5048205;28;20044;-77
2022/12/11 11:19:28;;;;;;;38.67;16.25;;;;;;;0.14;100.00;101075.19;5046501;28;20050;-80
2022/12/11 11:21:58;;;;;;;39.88;17.42;;;;;;;0.17;100.00;101074.44;5040203;28;20044;-78
2022/12/11 11:24:27;;;;;;;48.28;18.08;;;;;;;0.17;100.00;101069.25;5040554;28;20049;-77
2022/12/11 11:26:56;;;;;;;42.40;17.92;;;;;;;0.18;100.00;101074.50;5050939;28;20052;-78
2022/12/11 11:29:40;;;;;;;43.97;17.42;;;;;;;0.19;100.00;101080.59;5025504;28;20045;-77
2022/12/11 11:32:38;;;;;;;48.55;19.38;;;;;;;0.18;100.00;101078.81;5051570;28;20041;-77
2022/12/11 11:35:12;;;;;;;41.83;17.58;;;;;;;0.20;100.00;101066.81;5042014;28;20048;-77
2022/12/11 11:37:45;;;;;;;40.75;17.63;;;;;;;0.19;100.00;101078.00;5061087;28;20041;-78